createdAt,value
2022-08-22T00:00:15.386Z,4.00
2022-08-22T00:02:55.205Z,3.80
2022-08-22T00:03:08.534Z,2.20
2022-08-22T00:03:10.106Z,2.20
2022-08-22T00:03:17.501Z,3.70
2022-08-22T00:05:51.929Z,3.90
2022-08-22T00:08:30.789Z,3.23
2022-08-22T00:11:05.458Z,4.13
2022-08-22T00:14:01.648Z,5.37
2022-08-22T00:16:42.080Z,4.40
2022-08-22T00:19:29.699Z,4.37
2022-08-22T00:22:02.468Z,4.47
2022-08-22T00:24:39.183Z,4.20
2022-08-22T00:27:15.215Z,4.70
2022-08-22T00:29:51.820Z,4.27
2022-08-22T00:32:41.133Z,4.00
2022-08-22T00:35:22.132Z,5.13
2022-08-22T00:38:15.211Z,4.97
2022-08-22T00:41:00.225Z,4.70
2022-08-22T00:44:00.976Z,4.40
2022-08-22T00:46:44.106Z,5.60
2022-08-22T00:49:13.704Z,4.90
2022-08-22T00:52:13.662Z,5.47
2022-08-22T00:54:52.186Z,4.93
2022-08-22T00:57:40.045Z,4.90
2022-08-22T01:00:23.411Z,5.30
2022-08-22T01:03:11.314Z,5.07
2022-08-22T01:05:40.886Z,5.43
2022-08-22T01:08:32.361Z,5.10
2022-08-22T01:10:58.808Z,5.30
2022-08-22T01:13:57.780Z,5.23
2022-08-22T01:16:54.740Z,5.23
2022-08-22T01:19:44.397Z,5.87
2022-08-22T01:22:32.720Z,5.40
2022-08-22T01:25:26.555Z,5.03
2022-08-22T01:28:05.387Z,5.23
2022-08-22T01:31:03.301Z,5.40
2022-08-22T01:34:01.633Z,6.50
2022-08-22T01:36:49.846Z,5.90
2022-08-22T01:39:34.221Z,5.70
2022-08-22T01:42:16.099Z,5.60
2022-08-22T01:45:14.945Z,6.33
2022-08-22T01:47:54.971Z,7.43
2022-08-22T01:50:23.694Z,7.83
2022-08-22T01:52:50.925Z,7.57
2022-08-22T01:55:30.432Z,8.63
2022-08-22T01:57:59.889Z,8.93
2022-08-22T02:00:34.618Z,7.90
2022-08-22T02:03:08.282Z,12.37
2022-08-22T02:05:40.302Z,10.97
2022-08-22T02:08:31.471Z,9.30
2022-08-22T02:11:06.341Z,9.47
2022-08-22T02:13:46.453Z,9.77
2022-08-22T02:16:38.098Z,10.53
2022-08-22T02:19:13.785Z,10.27
2022-08-22T02:21:42.692Z,11.07
2022-08-22T02:24:24.476Z,10.60
2022-08-22T02:27:21.649Z,9.93
2022-08-22T02:30:00.423Z,12.10
2022-08-22T02:32:35.606Z,12.20
2022-08-22T02:35:18.444Z,12.40
2022-08-22T02:38:03.719Z,11.90
2022-08-22T02:40:32.235Z,11.90
2022-08-22T02:43:01.576Z,10.60
2022-08-22T02:45:38.979Z,13.40
2022-08-22T02:48:17.718Z,12.00
2022-08-22T02:51:01.751Z,10.47
2022-08-22T02:53:55.863Z,9.87
2022-08-22T02:56:39.432Z,9.20
2022-08-22T02:59:37.119Z,9.93
2022-08-22T03:02:27.705Z,9.23
2022-08-22T03:05:16.322Z,9.60
2022-08-22T03:07:59.990Z,10.40
2022-08-22T03:10:30.349Z,8.60
2022-08-22T03:13:16.530Z,6.87
2022-08-22T03:15:48.605Z,7.07
2022-08-22T03:18:40.426Z,7.40
2022-08-22T03:21:15.820Z,7.10
2022-08-22T03:23:43.710Z,7.87
2022-08-22T03:26:29.621Z,7.90
2022-08-22T03:29:03.382Z,7.50
2022-08-22T03:31:31.262Z,7.00
2022-08-22T03:34:23.694Z,7.93
2022-08-22T03:37:14.890Z,7.30
2022-08-22T03:39:44.494Z,7.50
2022-08-22T03:42:34.522Z,6.60
2022-08-22T03:45:35.337Z,8.17
2022-08-22T03:48:38.778Z,8.50
2022-08-22T03:51:26.990Z,7.03
2022-08-22T03:54:12.158Z,7.87
2022-08-22T03:57:29.946Z,7.10
2022-08-22T04:00:38.238Z,6.50
2022-08-22T04:03:05.501Z,7.57
2022-08-22T04:05:54.273Z,6.60
2022-08-22T04:08:26.278Z,7.57
2022-08-22T04:11:03.770Z,7.27
2022-08-22T04:13:36.422Z,7.40
2022-08-22T04:16:14.623Z,8.77
2022-08-22T04:19:02.967Z,7.23
2022-08-22T04:21:32.877Z,7.93
2022-08-22T04:24:11.582Z,7.13
2022-08-22T04:26:41.556Z,7.40
2022-08-22T04:29:25.562Z,7.50
2022-08-22T04:32:20.743Z,7.53
2022-08-22T04:34:52.248Z,7.83
2022-08-22T04:37:31.594Z,7.93
2022-08-22T04:40:15.836Z,8.20
2022-08-22T04:42:47.242Z,8.23
2022-08-22T04:45:24.457Z,7.90
2022-08-22T04:48:19.249Z,8.20
2022-08-22T04:51:12.103Z,6.67
2022-08-22T04:54:06.651Z,7.53
2022-08-22T04:56:43.805Z,7.17
2022-08-22T04:59:16.811Z,7.37
2022-08-22T05:01:43.344Z,7.40
2022-08-22T05:04:14.331Z,7.37
2022-08-22T05:06:46.063Z,7.97
2022-08-22T05:09:17.204Z,7.10
2022-08-22T05:11:46.388Z,7.00
2022-08-22T05:14:27.987Z,6.93
2022-08-22T05:16:56.518Z,7.27
2022-08-22T05:19:37.309Z,7.93
2022-08-22T05:22:13.709Z,7.13
2022-08-22T05:24:43.485Z,7.00
2022-08-22T05:27:13.663Z,6.47
2022-08-22T05:29:43.348Z,7.10
2022-08-22T05:32:20.916Z,6.30
2022-08-22T05:34:48.348Z,8.10
2022-08-22T05:37:24.858Z,7.03
2022-08-22T05:39:55.163Z,6.13
2022-08-22T05:42:34.232Z,7.60
2022-08-22T05:45:02.665Z,6.63
2022-08-22T05:47:47.909Z,6.70
2022-08-22T05:50:46.398Z,7.87
2022-08-22T05:53:19.081Z,7.03
2022-08-22T05:56:05.062Z,7.93
2022-08-22T05:58:49.847Z,7.33
2022-08-22T06:01:39.216Z,6.93
2022-08-22T06:04:11.794Z,8.37
2022-08-22T06:07:06.983Z,8.60
2022-08-22T06:09:56.048Z,10.20
2022-08-22T06:12:39.503Z,10.20
2022-08-22T06:15:23.230Z,7.83
2022-08-22T06:18:05.061Z,8.50
2022-08-22T06:20:36.095Z,8.10
2022-08-22T06:23:04.008Z,7.30
2022-08-22T06:25:33.731Z,8.10
2022-08-22T06:28:07.857Z,8.47
2022-08-22T06:30:35.695Z,8.20
2022-08-22T06:33:07.209Z,7.70
2022-08-22T06:36:08.294Z,8.20
2022-08-22T06:39:11.496Z,8.50
2022-08-22T06:41:49.397Z,7.60
2022-08-22T06:44:20.016Z,8.70
2022-08-22T06:46:48.155Z,8.17
2022-08-22T06:49:15.462Z,8.23
2022-08-22T06:51:42.403Z,8.63
2022-08-22T06:54:16.306Z,9.33
2022-08-22T06:56:45.611Z,8.67
2022-08-22T06:59:17.927Z,8.00
2022-08-22T07:01:53.802Z,8.57
2022-08-22T07:04:25.951Z,8.43
2022-08-22T07:06:54.848Z,9.10
2022-08-22T07:09:38.855Z,9.57
2022-08-22T07:12:12.078Z,9.90
2022-08-22T07:14:42.911Z,7.70
2022-08-22T07:17:17.109Z,8.80
2022-08-22T07:19:49.514Z,8.20
2022-08-22T07:22:24.117Z,7.80
2022-08-22T07:24:54.075Z,7.23
2022-08-22T07:27:30.813Z,6.70
2022-08-22T07:30:04.462Z,6.77
2022-08-22T07:32:43.167Z,7.13
2022-08-22T07:35:33.558Z,6.57
2022-08-22T07:38:16.895Z,6.27
2022-08-22T07:40:46.703Z,6.17
2022-08-22T07:43:38.124Z,6.07
2022-08-22T07:46:23.084Z,6.80
2022-08-22T07:49:34.488Z,5.60
2022-08-22T07:52:10.444Z,6.67
2022-08-22T07:54:43.091Z,9.37
2022-08-22T07:57:14.803Z,6.90
2022-08-22T07:59:52.016Z,6.27
2022-08-22T08:02:19.254Z,6.50
2022-08-22T08:04:49.005Z,5.83
2022-08-22T08:07:17.881Z,7.87
2022-08-22T08:09:50.043Z,6.73
2022-08-22T08:12:19.492Z,5.67
2022-08-22T08:14:50.112Z,4.93
2022-08-22T08:17:32.262Z,4.87
2022-08-22T08:20:02.211Z,4.80
2022-08-22T08:22:29.771Z,5.50
2022-08-22T08:24:58.677Z,5.23
2022-08-22T08:27:59.973Z,5.13
2022-08-22T08:30:40.400Z,5.23
2022-08-22T08:33:25.528Z,4.40
2022-08-22T08:36:02.130Z,3.93
2022-08-22T08:38:32.972Z,4.27
2022-08-22T08:41:26.049Z,4.00
2022-08-22T08:44:01.815Z,5.10
2022-08-22T08:46:55.813Z,3.57
2022-08-22T08:49:42.976Z,4.63
2022-08-22T08:52:18.851Z,4.10
2022-08-22T08:54:55.595Z,3.37
2022-08-22T08:57:44.108Z,3.73
2022-08-22T09:00:20.889Z,3.33
2022-08-22T09:03:07.881Z,3.00
2022-08-22T09:06:13.643Z,3.17
2022-08-22T09:08:57.617Z,2.90
2022-08-22T09:11:44.509Z,3.43
2022-08-22T09:14:37.560Z,2.97
2022-08-22T09:17:16.087Z,3.40
2022-08-22T09:20:02.875Z,2.70
2022-08-22T09:23:17.753Z,2.80
2022-08-22T09:25:53.173Z,4.23
2022-08-22T09:28:41.162Z,3.37
2022-08-22T09:31:32.779Z,3.10
2022-08-22T09:34:35.780Z,3.83
2022-08-22T09:37:02.745Z,2.90
2022-08-22T09:39:49.483Z,3.13
2022-08-22T09:42:38.078Z,3.00
2022-08-22T09:45:38.764Z,3.37
2022-08-22T09:48:15.779Z,3.13
2022-08-22T09:51:31.341Z,2.73
2022-08-22T09:54:07.291Z,2.60
2022-08-22T09:57:01.411Z,2.40
2022-08-22T09:59:50.873Z,2.70
2022-08-22T10:02:30.260Z,2.33
2022-08-22T10:05:40.571Z,2.30
2022-08-22T10:08:28.391Z,2.70
2022-08-22T10:11:09.917Z,2.47
2022-08-22T10:14:00.806Z,3.20
2022-08-22T10:16:43.545Z,3.60
2022-08-22T10:19:31.987Z,2.92
2022-08-22T10:22:22.041Z,3.20
2022-08-22T10:25:00.674Z,3.35
2022-08-22T10:27:52.536Z,3.00
2022-08-22T10:30:22.430Z,3.22
2022-08-22T10:33:14.473Z,2.92
2022-08-22T10:35:52.243Z,3.08
2022-08-22T10:38:28.716Z,2.83
2022-08-22T10:41:09.414Z,2.88
2022-08-22T10:43:59.067Z,3.10
2022-08-22T10:46:42.227Z,3.38
2022-08-22T10:49:37.026Z,3.63
2022-08-22T10:52:16.197Z,3.40
2022-08-22T10:55:12.753Z,3.97
2022-08-22T10:58:02.148Z,3.67
2022-08-22T11:00:33.391Z,3.35
2022-08-22T11:03:09.919Z,3.80
2022-08-22T11:05:43.945Z,3.50
2022-08-22T11:08:35.222Z,3.92
2022-08-22T11:11:39.798Z,3.80
2022-08-22T11:14:13.406Z,4.63
2022-08-22T11:17:02.761Z,3.72
2022-08-22T11:20:22.271Z,3.70
2022-08-22T11:23:12.494Z,4.13
2022-08-22T11:25:52.449Z,4.15
2022-08-22T11:28:58.010Z,4.07
2022-08-22T11:32:10.046Z,3.38
2022-08-22T11:35:01.212Z,3.60
2022-08-22T11:37:56.368Z,3.90
2022-08-22T11:40:38.561Z,4.35
2022-08-22T11:43:18.160Z,4.30
2022-08-22T11:45:51.470Z,3.35
2022-08-22T11:48:25.394Z,3.92
2022-08-22T11:51:24.958Z,4.38
2022-08-22T11:54:12.898Z,4.07
2022-08-22T11:56:45.190Z,3.72
2022-08-22T11:59:22.572Z,3.67
2022-08-22T12:01:55.091Z,3.65
2022-08-22T12:04:33.794Z,3.78
2022-08-22T12:07:20.969Z,3.83
2022-08-22T12:09:52.007Z,3.70
2022-08-22T12:12:48.266Z,3.38
2022-08-22T12:15:36.142Z,3.20
2022-08-22T12:18:40.440Z,3.60
2022-08-22T12:21:36.831Z,3.23
2022-08-22T12:24:23.471Z,3.57
2022-08-22T12:26:49.947Z,3.20
2022-08-22T12:29:34.138Z,3.37
2022-08-22T12:32:28.289Z,3.30
2022-08-22T12:35:03.731Z,2.90
2022-08-22T12:38:00.015Z,3.57
2022-08-22T12:40:29.949Z,3.70
2022-08-22T12:43:12.838Z,2.80
2022-08-22T12:45:50.734Z,4.17
2022-08-22T12:48:29.778Z,4.50
2022-08-22T12:51:20.578Z,3.13
2022-08-22T12:53:53.080Z,3.13
2022-08-22T12:56:29.483Z,3.47
2022-08-22T12:59:08.142Z,3.10
2022-08-22T13:01:43.459Z,3.33
2022-08-22T13:04:32.390Z,3.13
2022-08-22T13:07:30.574Z,3.17
2022-08-22T13:10:21.008Z,3.60
2022-08-22T13:12:50.718Z,2.73
2022-08-22T13:15:53.583Z,3.27
2022-08-22T13:18:30.221Z,3.37
2022-08-22T13:21:00.474Z,3.10
2022-08-22T13:23:39.964Z,5.97
2022-08-22T13:26:34.536Z,3.60
2022-08-22T13:29:27.195Z,3.70
2022-08-22T13:32:00.206Z,3.60
2022-08-22T13:34:40.587Z,2.87
2022-08-22T13:37:26.243Z,3.47
2022-08-22T13:39:55.991Z,3.20
2022-08-22T13:42:27.871Z,3.40
2022-08-22T13:45:02.503Z,3.53
2022-08-22T13:47:31.694Z,3.20
2022-08-22T13:50:19.170Z,3.50
2022-08-22T13:52:55.091Z,3.23
2022-08-22T13:55:31.081Z,3.17
2022-08-22T13:58:19.174Z,3.60
2022-08-22T14:01:00.956Z,3.73
2022-08-22T14:03:57.984Z,2.93
2022-08-22T14:06:41.332Z,4.10
2022-08-22T14:09:44.559Z,3.80
2022-08-22T14:12:50.908Z,3.43
2022-08-22T14:15:33.066Z,3.30
2022-08-22T14:18:30.091Z,2.97
2022-08-22T14:21:26.674Z,4.00
2022-08-22T14:23:57.488Z,3.30
2022-08-22T14:26:33.242Z,3.80
2022-08-22T14:29:08.266Z,3.80
2022-08-22T14:31:35.762Z,6.20
2022-08-22T14:34:10.452Z,3.47
2022-08-22T14:36:55.178Z,5.40
2022-08-22T14:39:38.454Z,3.70
2022-08-22T14:42:19.584Z,4.07
2022-08-22T14:45:08.468Z,3.70
2022-08-22T14:48:09.938Z,3.70
2022-08-22T14:50:43.811Z,2.73
2022-08-22T14:53:11.953Z,3.30
2022-08-22T14:55:40.785Z,3.40
2022-08-22T14:58:26.435Z,3.67
2022-08-22T15:00:56.074Z,3.93
2022-08-22T15:03:33.920Z,3.77
2022-08-22T15:06:02.072Z,4.23
2022-08-22T15:08:30.846Z,4.27
2022-08-22T15:11:08.443Z,4.50
2022-08-22T15:13:36.637Z,3.67
2022-08-22T15:16:17.783Z,4.23
2022-08-22T15:18:51.762Z,4.03
2022-08-22T15:21:24.285Z,3.40
2022-08-22T15:23:54.533Z,5.00
2022-08-22T15:26:34.191Z,3.80
2022-08-22T15:29:09.936Z,4.20
2022-08-22T15:31:39.682Z,9.00
2022-08-22T15:34:21.339Z,7.23
2022-08-22T15:37:01.448Z,5.30
2022-08-22T15:39:57.551Z,3.80
2022-08-22T15:42:31.892Z,8.10
2022-08-22T15:44:59.378Z,10.70
2022-08-22T15:47:41.442Z,3.93
2022-08-22T15:50:29.177Z,3.87
2022-08-22T15:53:09.040Z,3.27
2022-08-22T15:55:37.005Z,2.93
2022-08-22T15:58:07.431Z,3.20
2022-08-22T16:00:43.281Z,2.60
2022-08-22T16:03:32.113Z,3.53
2022-08-22T16:06:07.672Z,3.80
2022-08-22T16:08:43.962Z,3.20
2022-08-22T16:11:33.660Z,3.30
2022-08-22T16:14:24.834Z,3.10
2022-08-22T16:16:54.854Z,2.90
2022-08-22T16:19:25.367Z,3.37
2022-08-22T16:21:51.888Z,3.60
2022-08-22T16:24:18.353Z,3.90
2022-08-22T16:26:46.028Z,3.47
2022-08-22T16:29:18.013Z,3.03
2022-08-22T16:31:48.007Z,2.90
2022-08-22T16:34:17.750Z,3.27
2022-08-22T16:37:08.707Z,2.90
2022-08-22T16:39:47.815Z,2.90
2022-08-22T16:42:17.061Z,2.60
2022-08-22T16:45:02.618Z,3.00
2022-08-22T16:47:41.462Z,2.60
2022-08-22T16:50:23.310Z,2.67
2022-08-22T16:52:52.849Z,3.33
2022-08-22T16:55:28.565Z,2.83
2022-08-22T16:58:14.107Z,2.80
2022-08-22T17:00:49.866Z,2.90
2022-08-22T17:03:19.365Z,2.90
2022-08-22T17:05:45.982Z,2.90
2022-08-22T17:08:25.673Z,2.67
2022-08-22T17:11:17.233Z,3.13
2022-08-22T17:13:46.950Z,3.27
2022-08-22T17:16:35.388Z,3.40
2022-08-22T17:19:25.343Z,2.60
2022-08-22T17:21:57.400Z,2.93
2022-08-22T17:24:35.561Z,2.93
2022-08-22T17:27:19.542Z,3.20
2022-08-22T17:30:10.477Z,3.23
2022-08-22T17:32:59.962Z,3.13
2022-08-22T17:35:40.602Z,3.10
2022-08-22T17:38:19.258Z,2.83
2022-08-22T17:40:59.398Z,3.30
2022-08-22T17:43:48.714Z,3.00
2022-08-22T17:46:34.072Z,2.70
2022-08-22T17:49:25.576Z,3.63
2022-08-22T17:52:01.031Z,3.30
2022-08-22T17:54:33.885Z,4.27
2022-08-22T17:57:22.415Z,3.77
2022-08-22T17:59:56.594Z,4.00
2022-08-22T18:02:47.978Z,4.70
2022-08-22T18:05:21.821Z,2.77
2022-08-22T18:07:48.346Z,3.70
2022-08-22T18:10:14.899Z,3.30
2022-08-22T18:12:44.741Z,3.23
2022-08-22T18:15:20.915Z,3.17
2022-08-22T18:18:17.849Z,3.03
2022-08-22T18:20:50.157Z,3.57
2022-08-22T18:23:40.111Z,3.10
2022-08-22T18:26:27.522Z,3.53
2022-08-22T18:28:55.388Z,3.33
2022-08-22T18:31:46.443Z,3.63
2022-08-22T18:34:40.777Z,3.33
2022-08-22T18:37:17.097Z,6.23
2022-08-22T18:39:51.631Z,3.90
2022-08-22T18:42:31.003Z,3.60
2022-08-22T18:44:57.660Z,3.47
2022-08-22T18:47:35.677Z,3.83
2022-08-22T18:50:30.628Z,3.40
2022-08-22T18:52:57.800Z,3.27
2022-08-22T18:55:30.949Z,2.80
2022-08-22T18:58:17.643Z,2.80
2022-08-22T19:01:09.466Z,4.10
2022-08-22T19:03:57.528Z,3.13
2022-08-22T19:06:42.982Z,2.90
2022-08-22T19:09:27.172Z,2.90
2022-08-22T19:12:23.046Z,3.13
2022-08-22T19:15:11.429Z,2.90
2022-08-22T19:18:04.229Z,3.20
2022-08-22T19:20:51.883Z,3.77
2022-08-22T19:23:43.406Z,2.97
2022-08-22T19:26:37.959Z,3.80
2022-08-22T19:29:30.186Z,3.40
2022-08-22T19:32:01.961Z,3.63
2022-08-22T19:34:32.619Z,3.67
2022-08-22T19:37:32.049Z,3.07
2022-08-22T19:40:07.757Z,2.90
2022-08-22T19:42:36.908Z,3.27
2022-08-22T19:45:26.560Z,3.77
2022-08-22T19:48:10.513Z,5.60
2022-08-22T19:50:39.146Z,4.03
2022-08-22T19:53:11.670Z,3.60
2022-08-22T19:55:38.362Z,2.90
2022-08-22T19:58:31.814Z,3.77
2022-08-22T20:01:20.830Z,3.53
2022-08-22T20:03:53.154Z,3.47
2022-08-22T20:06:43.446Z,3.37
2022-08-22T20:09:32.053Z,7.17
2022-08-22T20:12:28.211Z,3.77
2022-08-22T20:14:55.415Z,4.30
2022-08-22T20:17:25.084Z,3.63
2022-08-22T20:20:17.235Z,2.90
2022-08-22T20:22:49.703Z,3.50
2022-08-22T20:25:42.066Z,3.00
2022-08-22T20:28:25.033Z,3.60
2022-08-22T20:30:57.688Z,3.40
2022-08-22T20:33:30.161Z,3.77
2022-08-22T20:35:59.567Z,3.37
2022-08-22T20:38:39.825Z,3.77
2022-08-22T20:41:22.843Z,3.63
2022-08-22T20:43:53.498Z,3.40
2022-08-22T20:46:53.577Z,3.17
2022-08-22T20:49:28.616Z,3.97
2022-08-22T20:52:07.745Z,3.57
2022-08-22T20:54:40.659Z,3.80
2022-08-22T20:57:17.081Z,3.10
2022-08-22T21:00:12.500Z,3.70
2022-08-22T21:02:42.663Z,3.70
2022-08-22T21:05:22.397Z,3.57
2022-08-22T21:08:06.357Z,3.07
2022-08-22T21:10:54.620Z,3.40
2022-08-22T21:13:39.340Z,3.83
2022-08-22T21:16:17.035Z,3.57
2022-08-22T21:18:46.180Z,3.70
2022-08-22T21:21:20.523Z,3.63
2022-08-22T21:24:01.039Z,3.70
2022-08-22T21:26:30.907Z,4.27
2022-08-22T21:29:12.843Z,4.10
2022-08-22T21:31:48.843Z,3.70
2022-08-22T21:34:28.587Z,3.80
2022-08-22T21:36:59.530Z,3.30
2022-08-22T21:39:37.289Z,3.83
2022-08-22T21:42:03.786Z,3.33
2022-08-22T21:44:40.895Z,3.83
2022-08-22T21:47:30.589Z,3.33
2022-08-22T21:50:18.815Z,3.40
2022-08-22T21:53:02.537Z,3.80
2022-08-22T21:55:29.066Z,3.53
2022-08-22T21:58:35.149Z,3.20
2022-08-22T22:01:03.992Z,3.23
2022-08-22T22:03:36.686Z,3.53
2022-08-22T22:06:05.543Z,3.07
2022-08-22T22:08:33.224Z,3.73
2022-08-22T22:11:02.476Z,3.20
2022-08-22T22:13:31.477Z,3.40
2022-08-22T22:15:58.215Z,3.23
2022-08-22T22:18:27.169Z,3.00
2022-08-22T22:20:54.727Z,3.40
2022-08-22T22:23:22.457Z,3.50
2022-08-22T22:25:50.933Z,3.60
2022-08-22T22:28:24.989Z,3.10
2022-08-22T22:30:53.303Z,3.77
2022-08-22T22:33:22.893Z,3.30
2022-08-22T22:35:50.339Z,3.83
2022-08-22T22:38:20.630Z,3.00
2022-08-22T22:40:50.176Z,3.90
2022-08-22T22:43:16.929Z,3.30
2022-08-22T22:45:43.461Z,3.77
2022-08-22T22:48:10.258Z,3.83
2022-08-22T22:50:40.611Z,3.23
2022-08-22T22:53:08.116Z,3.57
2022-08-22T22:55:36.501Z,3.60
2022-08-22T22:58:08.372Z,3.40
2022-08-22T23:00:37.182Z,3.33
2022-08-22T23:03:06.137Z,3.47
2022-08-22T23:05:33.551Z,2.93
2022-08-22T23:08:01.015Z,3.30
2022-08-22T23:10:30.084Z,3.20
2022-08-22T23:12:56.874Z,3.70
2022-08-22T23:15:23.924Z,3.13
2022-08-22T23:17:50.492Z,3.80
2022-08-22T23:20:17.126Z,4.33
2022-08-22T23:22:50.452Z,3.23
2022-08-22T23:25:17.057Z,3.30
2022-08-22T23:27:43.867Z,3.90
2022-08-22T23:30:11.684Z,3.10
2022-08-22T23:32:38.746Z,3.83
2022-08-22T23:35:05.707Z,3.63
2022-08-22T23:37:32.279Z,2.83
2022-08-22T23:39:58.875Z,4.27
2022-08-22T23:42:25.641Z,3.40
2022-08-22T23:44:52.228Z,3.40
2022-08-22T23:47:18.770Z,3.33
2022-08-22T23:49:45.716Z,3.43
2022-08-22T23:52:13.277Z,3.30
2022-08-22T23:54:40.430Z,3.70
2022-08-22T23:57:11.974Z,3.60
2022-08-22T23:59:46.212Z,3.20
